createdAt,value
2023-01-11T00:00:39.235Z,4.90
2023-01-11T00:03:07.064Z,5.00
2023-01-11T00:05:43.943Z,4.90
2023-01-11T00:08:11.759Z,5.00
2023-01-11T00:10:38.871Z,5.00
2023-01-11T00:13:06.080Z,5.00
2023-01-11T00:15:33.123Z,5.00
2023-01-11T00:18:00.097Z,5.00
2023-01-11T00:20:27.214Z,5.00
2023-01-11T00:22:53.991Z,5.00
2023-01-11T00:25:20.881Z,5.00
2023-01-11T00:27:49.513Z,5.00
2023-01-11T00:30:17.894Z,5.00
2023-01-11T00:32:44.792Z,4.90
2023-01-11T00:35:11.970Z,5.00
2023-01-11T00:37:39.477Z,4.90
2023-01-11T00:40:08.251Z,4.90
2023-01-11T00:42:54.009Z,4.90
2023-01-11T00:45:39.692Z,4.90
2023-01-11T00:48:08.004Z,4.90
2023-01-11T00:50:37.247Z,4.80
2023-01-11T00:53:05.587Z,4.80
2023-01-11T00:55:33.333Z,4.80
2023-01-11T00:58:01.420Z,4.80
2023-01-11T01:00:30.498Z,4.80
2023-01-11T01:02:57.495Z,4.80
2023-01-11T01:05:24.836Z,4.90
2023-01-11T01:07:51.734Z,4.90
2023-01-11T01:10:19.625Z,4.90
2023-01-11T01:13:05.091Z,5.00
2023-01-11T01:15:32.874Z,5.00
2023-01-11T01:17:59.763Z,5.10
2023-01-11T01:20:27.181Z,5.10
2023-01-11T01:22:53.987Z,5.10
2023-01-11T01:25:20.919Z,5.10
2023-01-11T01:27:47.777Z,5.20
2023-01-11T01:30:14.982Z,5.20
2023-01-11T01:32:41.837Z,5.20
2023-01-11T01:35:08.999Z,5.20
2023-01-11T01:37:35.928Z,5.20
2023-01-11T01:40:03.143Z,5.20
2023-01-11T01:42:29.928Z,5.30
2023-01-11T01:45:04.872Z,5.30
2023-01-11T01:47:34.521Z,5.30
2023-01-11T01:50:06.606Z,5.30
2023-01-11T01:52:35.346Z,5.40
2023-01-11T01:55:09.721Z,5.40
2023-01-11T01:57:39.974Z,5.40
2023-01-11T02:00:08.954Z,5.40
2023-01-11T02:02:37.379Z,5.40
2023-01-11T02:05:05.666Z,5.40
2023-01-11T02:07:35.530Z,5.50
2023-01-11T02:10:28.091Z,5.50
2023-01-11T02:13:00.898Z,5.40
2023-01-11T02:15:28.974Z,5.40
2023-01-11T02:17:55.905Z,5.50
2023-01-11T02:21:00.588Z,5.40
2023-01-11T02:23:27.286Z,5.50
2023-01-11T02:25:59.772Z,5.40
2023-01-11T02:28:55.971Z,5.40
2023-01-11T02:31:43.118Z,5.50
2023-01-11T02:34:41.917Z,5.50
2023-01-11T02:37:24.473Z,5.50
2023-01-11T02:40:03.136Z,5.60
2023-01-11T02:43:10.166Z,5.50
2023-01-11T02:45:59.998Z,5.50
2023-01-11T02:49:09.333Z,5.60
2023-01-11T02:51:45.894Z,5.50
2023-01-11T02:54:17.112Z,5.60
2023-01-11T02:56:46.989Z,5.50
2023-01-11T02:59:20.978Z,5.50
2023-01-11T03:01:55.573Z,5.50
2023-01-11T03:04:26.667Z,5.50
2023-01-11T03:07:23.785Z,5.50
2023-01-11T03:10:17.198Z,5.60
2023-01-11T03:13:37.370Z,5.50
2023-01-11T03:16:24.364Z,5.50
2023-01-11T03:19:00.146Z,5.60
2023-01-11T03:21:58.933Z,5.60
2023-01-11T03:24:37.302Z,5.50
2023-01-11T03:27:17.343Z,5.50
2023-01-11T03:30:05.906Z,5.60
2023-01-11T03:32:50.074Z,5.60
2023-01-11T03:35:31.357Z,5.60
2023-01-11T03:38:04.577Z,5.60
2023-01-11T03:40:36.370Z,5.60
2023-01-11T03:43:13.288Z,5.60
2023-01-11T03:45:47.547Z,5.60
2023-01-11T03:48:22.171Z,5.60
2023-01-11T03:50:51.013Z,5.70
2023-01-11T03:53:19.681Z,5.70
2023-01-11T03:55:51.545Z,5.70
2023-01-11T03:58:18.899Z,5.70
2023-01-11T04:00:46.203Z,5.70
2023-01-11T04:03:14.672Z,5.70
2023-01-11T04:05:44.338Z,5.70
2023-01-11T04:08:11.562Z,5.70
2023-01-11T04:10:39.340Z,5.70
2023-01-11T04:13:06.165Z,5.60
2023-01-11T04:15:34.728Z,5.60
2023-01-11T04:18:05.235Z,5.60
2023-01-11T04:20:33.817Z,5.60
2023-01-11T04:23:00.665Z,5.50
2023-01-11T04:25:27.572Z,5.50
2023-01-11T04:27:54.473Z,5.60
2023-01-11T04:30:21.529Z,5.50
2023-01-11T04:32:48.299Z,5.60
2023-01-11T04:35:15.208Z,5.50
2023-01-11T04:37:42.173Z,5.50
2023-01-11T04:40:09.751Z,5.60
2023-01-11T04:42:36.640Z,5.60
2023-01-11T04:45:06.776Z,5.60
2023-01-11T04:47:33.625Z,5.60
2023-01-11T04:50:00.426Z,5.60
2023-01-11T04:52:27.228Z,5.60
2023-01-11T04:54:54.102Z,5.70
2023-01-11T04:57:21.160Z,5.70
2023-01-11T04:59:48.749Z,5.70
2023-01-11T05:02:15.952Z,5.70
2023-01-11T05:04:43.071Z,5.70
2023-01-11T05:07:10.819Z,5.70
2023-01-11T05:09:38.158Z,5.80
2023-01-11T05:12:05.084Z,5.70
2023-01-11T05:14:31.933Z,5.70
2023-01-11T05:16:58.996Z,5.70
2023-01-11T05:19:25.866Z,5.70
2023-01-11T05:21:52.653Z,5.80
2023-01-11T05:24:19.517Z,5.80
2023-01-11T05:26:48.460Z,5.70
2023-01-11T05:29:21.203Z,5.80
2023-01-11T05:31:48.434Z,5.70
2023-01-11T05:34:16.910Z,5.80
2023-01-11T05:36:44.561Z,5.70
2023-01-11T05:39:13.021Z,5.70
2023-01-11T05:41:40.087Z,5.70
2023-01-11T05:44:29.706Z,5.70
2023-01-11T05:46:56.518Z,5.70
2023-01-11T05:49:23.352Z,5.80
2023-01-11T05:51:50.153Z,5.70
2023-01-11T05:54:16.990Z,5.70
2023-01-11T05:56:43.928Z,5.70
2023-01-11T05:59:11.177Z,5.80
2023-01-11T06:01:38.237Z,5.70
2023-01-11T06:04:05.295Z,5.70
2023-01-11T06:06:32.875Z,5.80
2023-01-11T06:08:59.817Z,5.70
2023-01-11T06:11:26.601Z,5.70
2023-01-11T06:13:53.427Z,5.70
2023-01-11T06:16:21.293Z,5.70
2023-01-11T06:18:50.356Z,5.70
2023-01-11T06:21:18.193Z,5.70
2023-01-11T06:23:47.355Z,5.70
2023-01-11T06:26:16.542Z,5.80
2023-01-11T06:28:43.952Z,5.80
2023-01-11T06:31:11.267Z,5.70
2023-01-11T06:33:39.165Z,5.70
2023-01-11T06:36:08.713Z,5.70
2023-01-11T06:38:36.136Z,5.70
2023-01-11T06:41:05.724Z,5.70
2023-01-11T06:43:33.027Z,5.70
2023-01-11T06:46:00.355Z,5.70
2023-01-11T06:48:27.685Z,5.70
2023-01-11T06:50:56.899Z,5.70
2023-01-11T06:53:28.115Z,5.70
2023-01-11T06:55:57.168Z,5.70
2023-01-11T06:58:24.831Z,5.60
2023-01-11T07:00:53.256Z,5.60
2023-01-11T07:03:20.858Z,5.60
2023-01-11T07:05:48.016Z,5.60
2023-01-11T07:08:15.114Z,5.60
2023-01-11T07:10:43.735Z,5.60
2023-01-11T07:13:11.900Z,5.60
2023-01-11T07:15:39.100Z,5.50
2023-01-11T07:18:06.030Z,5.60
2023-01-11T07:20:32.873Z,5.50
2023-01-11T07:23:00.968Z,5.50
2023-01-11T07:25:29.081Z,5.60
2023-01-11T07:28:00.803Z,5.60
2023-01-11T07:30:29.388Z,5.50
2023-01-11T07:32:59.012Z,5.60
2023-01-11T07:35:28.912Z,5.50
2023-01-11T07:37:56.149Z,5.60
2023-01-11T07:40:23.050Z,5.60
2023-01-11T07:43:09.739Z,5.60
2023-01-11T07:45:45.501Z,5.60
2023-01-11T07:48:27.867Z,5.40
2023-01-11T07:50:55.079Z,5.60
2023-01-11T07:53:25.584Z,5.50
2023-01-11T07:55:52.839Z,5.50
2023-01-11T07:58:19.636Z,5.50
2023-01-11T08:00:46.478Z,5.40
2023-01-11T08:03:13.681Z,5.40
2023-01-11T08:05:40.807Z,5.40
2023-01-11T08:08:08.222Z,5.40
2023-01-11T08:10:35.058Z,5.40
2023-01-11T08:13:20.432Z,5.30
2023-01-11T08:15:47.315Z,5.30
2023-01-11T08:18:14.276Z,5.40
2023-01-11T08:20:41.525Z,5.40
2023-01-11T08:23:09.738Z,5.50
2023-01-11T08:25:37.043Z,5.50
2023-01-11T08:28:06.223Z,5.50
2023-01-11T08:30:33.551Z,5.60
2023-01-11T08:33:04.609Z,5.50
2023-01-11T08:35:36.645Z,5.60
2023-01-11T08:38:03.439Z,5.60
2023-01-11T08:40:30.293Z,5.70
2023-01-11T08:42:57.476Z,5.70
2023-01-11T08:45:24.703Z,5.70
2023-01-11T08:47:52.165Z,5.80
2023-01-11T08:50:20.252Z,5.80
2023-01-11T08:52:49.567Z,5.80
2023-01-11T08:55:16.507Z,5.90
2023-01-11T08:57:43.426Z,6.40
2023-01-11T09:00:11.401Z,5.90
2023-01-11T09:02:38.224Z,5.80
2023-01-11T09:05:05.439Z,5.80
2023-01-11T09:07:32.210Z,5.80
2023-01-11T09:09:58.999Z,5.90
2023-01-11T09:12:27.149Z,5.90
2023-01-11T09:14:53.945Z,5.90
2023-01-11T09:17:20.727Z,5.90
2023-01-11T09:19:47.553Z,5.80
2023-01-11T09:22:14.341Z,5.90
2023-01-11T09:24:41.129Z,5.90
2023-01-11T09:27:08.063Z,5.90
2023-01-11T09:29:37.195Z,6.00
2023-01-11T09:32:05.077Z,6.00
2023-01-11T09:34:31.973Z,6.10
2023-01-11T09:37:00.795Z,6.10
2023-01-11T09:39:28.857Z,6.10
2023-01-11T09:42:11.291Z,6.10
2023-01-11T09:44:54.175Z,6.20
2023-01-11T09:47:46.765Z,6.10
2023-01-11T09:50:19.816Z,6.10
2023-01-11T09:52:52.789Z,6.10
2023-01-11T09:55:28.079Z,6.10
2023-01-11T09:58:20.189Z,6.00
2023-01-11T10:01:07.036Z,6.00
2023-01-11T10:03:36.864Z,6.00
2023-01-11T10:06:28.565Z,6.00
2023-01-11T10:18:37.308Z,6.10
2023-01-11T10:19:11.833Z,6.20
2023-01-11T10:21:46.511Z,6.20
2023-01-11T10:24:22.686Z,6.30
2023-01-11T10:26:52.520Z,6.40
2023-01-11T10:30:01.597Z,6.40
2023-01-11T10:33:14.961Z,6.40
2023-01-11T10:36:20.029Z,6.40
2023-01-11T10:39:28.927Z,6.50
2023-01-11T10:42:21.809Z,6.60
2023-01-11T10:45:12.852Z,6.70
2023-01-11T10:48:07.526Z,6.70
2023-01-11T10:50:44.228Z,6.80
2023-01-11T10:53:34.683Z,6.80
2023-01-11T10:56:07.387Z,6.90
2023-01-11T10:58:46.485Z,6.90
2023-01-11T11:01:40.916Z,7.00
2023-01-11T11:04:26.343Z,7.00
2023-01-11T11:07:15.123Z,7.10
2023-01-11T11:10:08.837Z,7.10
2023-01-11T11:12:40.593Z,7.20
2023-01-11T11:15:33.813Z,7.20
2023-01-11T11:18:00.787Z,7.30
2023-01-11T11:20:33.677Z,7.30
2023-01-11T11:23:01.060Z,7.40
2023-01-11T11:25:40.837Z,7.40
2023-01-11T11:28:15.444Z,7.40
2023-01-11T11:30:46.518Z,7.50
2023-01-11T11:33:37.697Z,7.40
2023-01-11T11:36:12.885Z,7.40
2023-01-11T11:38:42.327Z,7.30
2023-01-11T11:41:13.823Z,7.30
2023-01-11T11:43:45.250Z,7.30
2023-01-11T11:46:19.351Z,7.20
2023-01-11T11:49:18.954Z,7.20
2023-01-11T11:51:47.711Z,7.10
2023-01-11T11:54:22.137Z,7.20
2023-01-11T11:56:49.674Z,7.20
2023-01-11T11:59:20.295Z,7.30
2023-01-11T12:01:54.803Z,7.40
2023-01-11T12:04:30.242Z,7.50
2023-01-11T12:07:15.971Z,7.60
2023-01-11T12:09:48.223Z,7.70
2023-01-11T12:12:20.804Z,7.80
2023-01-11T12:15:20.656Z,7.80
2023-01-11T12:17:48.442Z,7.90
2023-01-11T12:20:24.167Z,7.90
2023-01-11T12:23:12.640Z,8.00
2023-01-11T12:26:17.377Z,8.00
2023-01-11T12:29:08.035Z,8.10
2023-01-11T12:31:57.222Z,8.20
2023-01-11T12:34:49.791Z,8.20
2023-01-11T12:37:31.039Z,8.20
2023-01-11T12:40:30.712Z,8.20
2023-01-11T12:43:04.610Z,8.10
2023-01-11T12:45:45.395Z,8.10
2023-01-11T12:48:41.091Z,8.00
2023-01-11T12:51:16.601Z,7.90
2023-01-11T12:53:54.651Z,7.90
2023-01-11T12:56:58.589Z,7.90
2023-01-11T12:59:25.342Z,7.80
2023-01-11T13:02:22.242Z,7.70
2023-01-11T13:05:08.834Z,7.70
2023-01-11T13:07:54.372Z,7.60
2023-01-11T13:10:41.956Z,7.40
2023-01-11T13:13:25.483Z,7.40
2023-01-11T13:16:14.589Z,7.30
2023-01-11T13:18:59.242Z,7.20
2023-01-11T13:21:34.485Z,7.10
2023-01-11T13:24:32.374Z,7.10
2023-01-11T13:27:04.550Z,7.00
2023-01-11T13:29:41.269Z,7.00
2023-01-11T13:32:40.138Z,6.90
2023-01-11T13:35:16.564Z,6.80
2023-01-11T13:37:58.648Z,6.70
2023-01-11T13:40:34.440Z,6.60
2023-01-11T13:43:27.416Z,6.50
2023-01-11T13:46:26.575Z,6.40
2023-01-11T13:49:23.285Z,6.30
2023-01-11T13:52:03.999Z,6.20
2023-01-11T13:54:58.410Z,6.10
2023-01-11T13:57:39.267Z,6.00
2023-01-11T14:00:53.888Z,5.80
2023-01-11T14:03:35.354Z,5.80
2023-01-11T14:06:20.894Z,5.60
2023-01-11T14:09:18.367Z,5.60
2023-01-11T14:11:54.941Z,5.50
2023-01-11T14:14:40.401Z,5.40
2023-01-11T14:17:38.365Z,5.40
2023-01-11T14:20:05.156Z,5.30
2023-01-11T14:22:44.217Z,5.20
2023-01-11T14:25:33.443Z,5.20
2023-01-11T14:28:22.972Z,5.10
2023-01-11T14:31:08.273Z,5.10
2023-01-11T14:33:35.118Z,5.00
2023-01-11T14:36:29.771Z,5.00
2023-01-11T14:39:30.854Z,4.90
2023-01-11T14:42:21.991Z,4.90
2023-01-11T14:45:06.059Z,4.80
2023-01-11T14:47:39.644Z,4.80
2023-01-11T14:50:18.423Z,4.80
2023-01-11T14:52:45.935Z,4.80
2023-01-11T14:55:21.796Z,4.80
2023-01-11T14:58:18.228Z,4.70
2023-01-11T15:00:45.021Z,4.70
2023-01-11T15:03:19.634Z,4.60
2023-01-11T15:05:55.153Z,4.60
2023-01-11T15:08:27.345Z,4.50
2023-01-11T15:11:07.736Z,4.50
2023-01-11T15:13:43.156Z,4.50
2023-01-11T15:16:38.184Z,4.50
2023-01-11T15:19:08.740Z,4.40
2023-01-11T15:21:47.944Z,4.10
2023-01-11T15:24:27.868Z,4.40
2023-01-11T15:26:57.359Z,4.30
2023-01-11T15:29:29.376Z,4.30
2023-01-11T15:32:02.483Z,4.30
2023-01-11T15:34:42.211Z,4.30
2023-01-11T15:37:26.853Z,4.30
2023-01-11T15:40:03.572Z,4.30
2023-01-11T15:42:52.721Z,4.20
2023-01-11T15:46:15.297Z,4.20
2023-01-11T15:49:17.735Z,4.20
2023-01-11T15:52:06.529Z,4.10
2023-01-11T15:54:58.433Z,4.10
2023-01-11T15:57:30.880Z,4.10
2023-01-11T16:00:03.299Z,4.10
2023-01-11T16:02:32.895Z,4.20
2023-01-11T16:05:21.849Z,4.20
2023-01-11T16:08:14.405Z,4.20
2023-01-11T16:11:02.268Z,4.20
2023-01-11T16:13:50.412Z,4.20
2023-01-11T16:16:22.237Z,4.20
2023-01-11T16:18:51.823Z,4.30
2023-01-11T16:21:40.171Z,4.20
2023-01-11T16:24:15.765Z,4.30
2023-01-11T16:26:42.743Z,4.20
2023-01-11T16:29:23.317Z,4.20
2023-01-11T16:31:58.944Z,4.20
2023-01-11T16:34:28.916Z,4.30
2023-01-11T16:36:57.619Z,4.20
2023-01-11T16:39:29.494Z,4.20
2023-01-11T16:41:59.165Z,4.20
2023-01-11T16:44:28.750Z,4.20
2023-01-11T16:47:04.542Z,4.20
2023-01-11T16:49:31.563Z,4.10
2023-01-11T16:52:01.790Z,4.10
2023-01-11T16:54:33.395Z,4.10
2023-01-11T16:57:01.345Z,4.10
2023-01-11T16:59:34.855Z,4.10
2023-01-11T17:02:06.322Z,4.10
2023-01-11T17:04:35.846Z,4.10
2023-01-11T17:07:27.993Z,4.10
2023-01-11T17:10:25.575Z,4.10
2023-01-11T17:13:42.867Z,4.10
2023-01-11T17:16:13.633Z,4.10
2023-01-11T17:18:41.978Z,4.10
2023-01-11T17:21:22.805Z,4.10
2023-01-11T17:23:51.685Z,4.10
2023-01-11T17:26:24.651Z,4.10
2023-01-11T17:28:57.314Z,4.00
2023-01-11T17:31:31.041Z,4.00
2023-01-11T17:34:05.361Z,4.00
2023-01-11T17:36:33.109Z,4.00
2023-01-11T17:39:01.636Z,4.00
2023-01-11T17:41:48.984Z,4.00
2023-01-11T17:44:47.556Z,4.10
2023-01-11T17:47:14.628Z,4.00
2023-01-11T17:49:41.520Z,4.00
2023-01-11T17:52:22.734Z,4.00
2023-01-11T17:55:01.645Z,4.00
2023-01-11T17:57:28.901Z,4.00
2023-01-11T18:00:34.241Z,4.00
2023-01-11T18:03:08.171Z,3.90
2023-01-11T18:05:35.396Z,3.90
2023-01-11T18:08:04.030Z,3.90
2023-01-11T18:10:37.289Z,3.90
2023-01-11T18:13:04.260Z,3.90
2023-01-11T18:15:34.166Z,3.90
2023-01-11T18:18:01.846Z,3.80
2023-01-11T18:20:33.496Z,3.80
2023-01-11T18:23:23.116Z,3.80
2023-01-11T18:25:50.357Z,3.90
2023-01-11T18:28:26.219Z,3.80
2023-01-11T18:30:58.278Z,3.80
2023-01-11T18:33:28.176Z,3.80
2023-01-11T18:36:01.773Z,3.80
2023-01-11T18:38:34.052Z,3.90
2023-01-11T18:41:27.071Z,3.90
2023-01-11T18:43:55.844Z,3.90
2023-01-11T18:46:22.949Z,3.90
2023-01-11T18:48:52.308Z,3.80
2023-01-11T18:51:29.092Z,4.10
2023-01-11T18:53:56.033Z,3.90
2023-01-11T18:56:22.924Z,3.90
2023-01-11T18:58:50.145Z,4.00
2023-01-11T19:01:17.447Z,4.00
2023-01-11T19:03:46.131Z,4.00
2023-01-11T19:06:13.421Z,4.00
2023-01-11T19:08:40.607Z,4.00
2023-01-11T19:11:07.691Z,4.00
2023-01-11T19:13:35.739Z,4.00
2023-01-11T19:16:02.949Z,4.00
2023-01-11T19:18:30.304Z,4.00
2023-01-11T19:21:06.686Z,4.00
2023-01-11T19:23:34.299Z,3.90
2023-01-11T19:26:04.379Z,3.90
2023-01-11T19:28:31.540Z,3.90
2023-01-11T19:30:58.827Z,3.90
2023-01-11T19:33:27.924Z,3.80
2023-01-11T19:35:56.186Z,3.80
2023-01-11T19:38:23.195Z,3.80
2023-01-11T19:40:50.572Z,3.70
2023-01-11T19:43:17.623Z,3.70
2023-01-11T19:45:44.447Z,4.00
2023-01-11T19:48:12.395Z,3.70
2023-01-11T19:50:39.477Z,3.70
2023-01-11T19:53:06.354Z,3.70
2023-01-11T19:55:33.274Z,3.70
2023-01-11T19:58:02.652Z,3.80
2023-01-11T20:00:30.039Z,3.80
2023-01-11T20:02:57.260Z,3.80
2023-01-11T20:05:24.147Z,3.80
2023-01-11T20:07:51.119Z,3.80
2023-01-11T20:10:18.029Z,3.90
2023-01-11T20:12:44.815Z,3.90
2023-01-11T20:15:11.944Z,4.00
2023-01-11T20:17:38.773Z,3.90
2023-01-11T20:20:06.838Z,4.00
2023-01-11T20:22:34.036Z,4.00
2023-01-11T20:25:01.077Z,4.00
2023-01-11T20:27:28.158Z,4.10
2023-01-11T20:29:54.948Z,4.10
2023-01-11T20:32:41.053Z,4.10
2023-01-11T20:35:09.087Z,4.10
2023-01-11T20:37:35.924Z,4.20
2023-01-11T20:40:02.760Z,4.20
2023-01-11T20:42:31.204Z,4.20
2023-01-11T20:44:58.090Z,4.20
2023-01-11T20:47:25.225Z,4.20
2023-01-11T20:49:52.007Z,4.20
2023-01-11T20:52:18.821Z,4.20
2023-01-11T20:54:45.942Z,4.20
2023-01-11T20:57:12.982Z,4.30
2023-01-11T20:59:39.823Z,4.30
2023-01-11T21:02:07.687Z,4.30
2023-01-11T21:04:35.723Z,4.30
2023-01-11T21:07:02.776Z,4.30
2023-01-11T21:09:29.628Z,4.30
2023-01-11T21:11:56.588Z,4.30
2023-01-11T21:14:23.632Z,4.30
2023-01-11T21:16:50.720Z,4.40
2023-01-11T21:19:17.863Z,4.40
2023-01-11T21:21:44.779Z,4.40
2023-01-11T21:24:13.835Z,4.40
2023-01-11T21:26:42.343Z,4.50
2023-01-11T21:29:10.655Z,4.50
2023-01-11T21:31:38.319Z,3.50
2023-01-11T21:34:05.515Z,4.60
2023-01-11T21:36:32.477Z,4.60
2023-01-11T21:38:59.894Z,4.60
2023-01-11T21:41:48.198Z,4.60
2023-01-11T21:44:16.065Z,4.40
2023-01-11T21:46:43.775Z,4.70
2023-01-11T21:49:11.223Z,4.70
2023-01-11T21:51:39.315Z,4.70
2023-01-11T21:54:08.843Z,4.70
2023-01-11T21:56:36.204Z,4.70
2023-01-11T21:59:03.352Z,4.80
2023-01-11T22:01:30.554Z,4.80
2023-01-11T22:03:57.604Z,4.70
2023-01-11T22:06:24.527Z,4.80
2023-01-11T22:08:51.434Z,4.80
2023-01-11T22:11:18.548Z,4.80
2023-01-11T22:13:45.475Z,4.80
2023-01-11T22:16:15.209Z,4.80
2023-01-11T22:18:43.048Z,4.80
2023-01-11T22:21:12.706Z,4.80
2023-01-11T22:23:40.285Z,4.80
2023-01-11T22:26:09.476Z,4.80
2023-01-11T22:28:56.403Z,4.90
2023-01-11T22:31:23.858Z,4.80
2023-01-11T22:33:50.923Z,4.80
2023-01-11T22:36:18.145Z,4.80
2023-01-11T22:38:44.991Z,4.80
2023-01-11T22:41:12.038Z,4.80
2023-01-11T22:43:38.813Z,4.80
2023-01-11T22:46:06.055Z,4.90
2023-01-11T22:48:32.914Z,4.90
2023-01-11T22:50:59.718Z,4.90
2023-01-11T22:53:26.646Z,4.80
2023-01-11T22:55:53.456Z,4.90
2023-01-11T22:58:20.239Z,4.80
2023-01-11T23:00:47.025Z,4.80
2023-01-11T23:03:15.552Z,4.70
2023-01-11T23:05:46.534Z,4.70
2023-01-11T23:08:14.333Z,4.70
2023-01-11T23:10:41.688Z,4.60
2023-01-11T23:13:29.914Z,4.50
2023-01-11T23:15:56.810Z,4.50
2023-01-11T23:18:23.619Z,4.40
2023-01-11T23:20:50.438Z,4.30
2023-01-11T23:23:17.229Z,4.30
2023-01-11T23:25:44.040Z,4.30
2023-01-11T23:28:10.890Z,4.30
2023-01-11T23:30:37.731Z,4.30
2023-01-11T23:33:04.630Z,4.60
2023-01-11T23:35:31.470Z,4.30
2023-01-11T23:37:58.243Z,4.30
2023-01-11T23:40:25.033Z,4.30
2023-01-11T23:42:51.995Z,4.20
2023-01-11T23:45:18.995Z,4.20
2023-01-11T23:47:46.070Z,4.30
2023-01-11T23:50:14.662Z,4.30
2023-01-11T23:52:41.724Z,4.20
2023-01-11T23:55:09.589Z,4.30
2023-01-11T23:57:36.713Z,4.30
